Time;durP1;ratioP1;P1;durP2;ratioP2;P2;SDS_P1;SDS_P2;PMS_P1;PMS_P2;Temp;Humidity;BMP_temperature;BMP_pressure;BME280_temperature;BME280_humidity;BME280_pressure;Samples;Min_cycle;Max_cycle;Signal;HPM_P1;HPM_P2
2021/08/06 00:01:39;;;;;;;2.33;2.13;;;21.80;99.90;;;;;;5052978;28;20056;-79
2021/08/06 00:04:04;;;;;;;3.40;2.00;;;21.70;99.90;;;;;;5053645;28;20053;-79
2021/08/06 00:06:30;;;;;;;6.20;2.55;;;21.70;99.90;;;;;;5043246;28;20021;-79
2021/08/06 00:08:56;;;;;;;2.40;2.30;;;21.80;99.90;;;;;;5072691;28;20052;-79
2021/08/06 00:11:27;;;;;;;2.05;1.95;;;21.90;99.90;;;;;;5072943;28;20059;-80
2021/08/06 00:13:53;;;;;;;2.63;2.30;;;21.80;99.90;;;;;;5062470;28;20021;-79
2021/08/06 00:16:19;;;;;;;3.13;2.30;;;21.90;99.90;;;;;;5052971;28;20025;-79
2021/08/06 00:18:45;;;;;;;13.10;2.42;;;21.90;99.90;;;;;;5035130;28;20029;-79
2021/08/06 00:21:10;;;;;;;2.53;2.20;;;21.90;99.90;;;;;;5052832;28;20154;-79
2021/08/06 00:23:36;;;;;;;2.53;2.33;;;21.90;99.90;;;;;;5046389;28;20032;-79
2021/08/06 00:26:02;;;;;;;7.82;2.33;;;21.80;99.90;;;;;;5054860;28;20028;-79
2021/08/06 00:28:27;;;;;;;3.47;2.15;;;21.80;99.90;;;;;;5072815;28;20585;-79
2021/08/06 00:30:53;;;;;;;2.25;2.05;;;21.80;99.90;;;;;;5072821;28;20025;-79
2021/08/06 00:33:19;;;;;;;2.08;1.50;;;21.80;99.90;;;;;;5072692;28;20182;-80
2021/08/06 00:35:45;;;;;;;2.92;1.92;;;21.70;99.90;;;;;;5072883;28;20047;-79
2021/08/06 00:38:10;;;;;;;8.07;2.33;;;21.60;99.90;;;;;;5054616;28;20392;-79
2021/08/06 00:40:36;;;;;;;2.22;1.90;;;21.60;99.90;;;;;;5072761;28;20027;-79
2021/08/06 00:43:02;;;;;;;3.10;2.15;;;21.60;99.90;;;;;;5072731;28;20506;-79
2021/08/06 00:45:28;;;;;;;2.83;1.75;;;21.60;99.90;;;;;;5072684;28;20029;-79
2021/08/06 00:47:54;;;;;;;2.13;2.03;;;21.70;99.90;;;;;;5072732;28;20055;-79
2021/08/06 00:50:19;;;;;;;2.83;2.00;;;21.70;99.90;;;;;;5072681;28;20120;-79
2021/08/06 00:52:45;;;;;;;1.83;1.73;;;21.60;99.90;;;;;;5054672;28;20539;-79
2021/08/06 00:55:11;;;;;;;3.28;1.83;;;21.60;99.90;;;;;;5054555;28;20492;-79
2021/08/06 00:57:37;;;;;;;2.75;1.70;;;21.60;99.90;;;;;;5066890;28;20025;-79
2021/08/06 01:00:04;;;;;;;2.30;2.08;;;21.60;99.90;;;;;;5034635;28;20037;-79
2021/08/06 01:02:51;;;;;;;1.73;1.63;;;21.50;99.90;;;;;;5052764;28;20044;-79
2021/08/06 01:05:21;;;;;;;2.55;1.90;;;21.50;99.90;;;;;;5047596;28;20411;-79
2021/08/06 01:08:04;;;;;;;3.42;1.50;;;21.50;99.90;;;;;;5054348;28;20407;-79
2021/08/06 01:10:58;;;;;;;2.28;1.48;;;21.50;99.90;;;;;;5072514;28;20107;-79
2021/08/06 01:13:36;;;;;;;2.78;2.13;;;21.40;99.90;;;;;;5056869;28;20039;-79
2021/08/06 01:16:04;;;;;;;2.45;1.92;;;21.40;99.90;;;;;;5071374;28;20472;-80
2021/08/06 01:18:33;;;;;;;3.50;1.92;;;21.40;99.90;;;;;;5072346;28;20036;-79
2021/08/06 01:21:09;;;;;;;2.03;1.77;;;21.40;99.90;;;;;;5072341;28;20078;-79
2021/08/06 01:23:38;;;;;;;4.18;2.25;;;21.40;99.90;;;;;;5055756;28;20053;-80
2021/08/06 01:26:06;;;;;;;2.75;2.20;;;21.40;99.90;;;;;;5053265;28;20045;-79
2021/08/06 01:28:34;;;;;;;4.00;1.75;;;21.30;99.90;;;;;;5052437;28;20074;-79
2021/08/06 01:31:00;;;;;;;2.72;1.98;;;21.30;99.90;;;;;;5068349;28;20032;-79
2021/08/06 01:33:26;;;;;;;2.15;2.05;;;21.20;99.90;;;;;;5057193;28;20162;-79
2021/08/06 01:35:52;;;;;;;2.92;1.73;;;21.20;99.90;;;;;;5052207;28;20145;-79
2021/08/06 01:38:18;;;;;;;4.07;2.03;;;21.20;99.90;;;;;;5053700;28;20021;-79
2021/08/06 01:41:02;;;;;;;2.40;2.20;;;21.10;99.90;;;;;;5055775;28;20087;-79
2021/08/06 01:43:50;;;;;;;1.90;1.77;;;21.10;99.90;;;;;;5072070;28;20059;-79
2021/08/06 01:46:22;;;;;;;5.03;1.70;;;21.00;99.90;;;;;;5074949;28;20032;-79
2021/08/06 01:48:50;;;;;;;;;;;21.00;99.90;;;;;;5065028;28;20391;-79
2021/08/06 01:51:19;;;;;;;2.63;2.00;;;20.90;99.90;;;;;;5055986;28;19936;-79
2021/08/06 01:53:47;;;;;;;1.77;1.67;;;20.90;99.90;;;;;;5072522;28;20037;-79
2021/08/06 01:56:18;;;;;;;3.03;2.10;;;20.90;99.90;;;;;;5059793;28;20033;-79
2021/08/06 01:58:49;;;;;;;2.17;1.97;;;20.90;99.90;;;;;;5055318;28;20029;-79
2021/08/06 02:01:16;;;;;;;2.00;1.83;;;20.90;99.90;;;;;;5055061;28;20150;-79
2021/08/06 02:03:42;;;;;;;2.30;2.10;;;20.90;99.90;;;;;;5066975;28;20487;-79
2021/08/06 02:06:09;;;;;;;7.93;2.40;;;20.90;99.90;;;;;;5037119;28;20106;-79
2021/08/06 02:08:38;;;;;;;1.80;1.70;;;20.90;99.90;;;;;;5061512;28;20509;-79
2021/08/06 02:11:05;;;;;;;2.78;1.88;;;20.90;99.90;;;;;;5075685;28;20535;-79
2021/08/06 02:13:31;;;;;;;5.07;1.98;;;21.00;99.90;;;;;;5074723;28;20031;-79
2021/08/06 02:15:58;;;;;;;8.18;1.73;;;21.00;99.90;;;;;;5055109;28;20032;-79
2021/08/06 02:18:25;;;;;;;3.35;1.58;;;21.00;99.90;;;;;;5054509;28;20131;-79
2021/08/06 02:20:56;;;;;;;2.33;1.67;;;20.90;99.90;;;;;;5036441;28;20025;-79
2021/08/06 02:23:24;;;;;;;1.75;1.65;;;20.90;99.90;;;;;;5052531;28;20021;-79
2021/08/06 02:25:52;;;;;;;1.83;1.45;;;20.90;99.90;;;;;;5038087;28;20040;-79
2021/08/06 02:28:19;;;;;;;1.83;1.73;;;20.90;99.90;;;;;;5036354;28;20025;-79
2021/08/06 02:30:46;;;;;;;4.28;1.80;;;20.90;99.90;;;;;;5054289;28;20029;-79
2021/08/06 02:33:12;;;;;;;1.65;1.55;;;20.80;99.90;;;;;;5050789;28;20029;-79
2021/08/06 02:35:38;;;;;;;1.23;1.23;;;20.80;99.90;;;;;;5057834;28;20492;-79
2021/08/06 02:38:04;;;;;;;4.40;1.65;;;20.80;99.90;;;;;;5054297;28;20033;-79
2021/08/06 02:40:30;;;;;;;2.08;1.88;;;20.70;99.90;;;;;;5053865;28;20039;-79
2021/08/06 02:42:56;;;;;;;3.55;1.50;;;20.70;99.90;;;;;;5056673;28;20119;-79
2021/08/06 02:45:21;;;;;;;1.63;1.52;;;20.60;99.90;;;;;;5073878;28;20024;-79
2021/08/06 02:47:48;;;;;;;1.85;1.52;;;20.60;99.90;;;;;;5074577;28;20024;-79
2021/08/06 02:50:14;;;;;;;2.50;1.90;;;20.60;99.90;;;;;;5073471;28;20084;-80
2021/08/06 02:52:40;;;;;;;4.15;1.45;;;20.60;99.90;;;;;;5064197;28;20516;-79
2021/08/06 02:55:07;;;;;;;1.52;1.42;;;20.50;99.90;;;;;;5065219;28;20039;-79
2021/08/06 02:57:33;;;;;;;3.40;1.80;;;20.50;99.90;;;;;;5068923;28;20066;-79
2021/08/06 02:59:59;;;;;;;3.28;1.80;;;20.60;99.90;;;;;;5054414;28;20043;-79
2021/08/06 03:02:25;;;;;;;5.45;1.70;;;20.60;99.90;;;;;;5061367;28;20108;-79
2021/08/06 03:04:51;;;;;;;1.55;1.45;;;20.60;99.90;;;;;;5065383;28;20060;-79
2021/08/06 03:07:20;;;;;;;1.60;1.50;;;20.60;99.90;;;;;;5053997;28;20108;-79
2021/08/06 03:09:46;;;;;;;2.25;1.42;;;20.50;99.90;;;;;;5036237;28;20032;-79
2021/08/06 03:12:12;;;;;;;1.60;1.50;;;20.50;99.90;;;;;;5058947;28;20028;-79
2021/08/06 03:14:39;;;;;;;1.67;1.58;;;20.50;99.90;;;;;;5070668;28;20032;-80
2021/08/06 03:17:06;;;;;;;1.38;1.30;;;20.50;99.90;;;;;;5064527;28;20379;-79
2021/08/06 03:19:31;;;;;;;3.15;1.48;;;20.50;99.90;;;;;;5074063;28;20400;-79
2021/08/06 03:21:57;;;;;;;2.28;1.40;;;20.50;99.90;;;;;;5073557;28;20029;-79
2021/08/06 03:24:23;;;;;;;1.20;1.20;;;20.50;99.90;;;;;;5073934;28;20029;-79
2021/08/06 03:26:49;;;;;;;1.50;1.40;;;20.50;99.90;;;;;;5073901;28;20017;-79
2021/08/06 03:29:15;;;;;;;2.25;1.35;;;20.50;99.90;;;;;;5073698;28;20036;-79
2021/08/06 03:31:40;;;;;;;2.53;1.40;;;20.50;99.90;;;;;;5073838;28;20391;-79
2021/08/06 03:34:06;;;;;;;1.50;1.40;;;20.50;99.90;;;;;;5056273;28;20029;-79
2021/08/06 03:36:32;;;;;;;1.40;1.30;;;20.50;99.90;;;;;;5053801;28;20096;-80
2021/08/06 03:38:58;;;;;;;1.70;1.60;;;20.50;99.90;;;;;;5053614;28;20431;-79
2021/08/06 03:41:24;;;;;;;2.00;1.45;;;20.50;99.90;;;;;;5035609;28;20125;-79
2021/08/06 03:43:49;;;;;;;1.88;1.67;;;20.50;99.90;;;;;;5063274;28;20086;-80
2021/08/06 03:46:15;;;;;;;1.45;1.35;;;20.50;99.90;;;;;;5073467;28;20021;-79
2021/08/06 03:48:41;;;;;;;3.95;1.50;;;20.50;99.90;;;;;;5073526;28;20437;-79
2021/08/06 03:51:07;;;;;;;4.90;1.70;;;20.50;99.90;;;;;;5073429;28;20126;-79
2021/08/06 03:53:32;;;;;;;1.30;1.20;;;20.50;99.90;;;;;;5055455;28;20021;-79
2021/08/06 03:55:58;;;;;;;1.58;1.48;;;20.40;99.90;;;;;;5073338;28;20033;-79
2021/08/06 03:58:24;;;;;;;2.97;1.30;;;20.40;99.90;;;;;;5073276;28;20024;-80
2021/08/06 04:00:50;;;;;;;3.47;1.65;;;20.50;99.90;;;;;;5072945;28;20028;-79
2021/08/06 04:03:15;;;;;;;1.63;1.35;;;20.50;99.90;;;;;;5073161;28;20030;-80
2021/08/06 04:05:41;;;;;;;3.03;1.70;;;20.50;99.90;;;;;;5070561;28;20032;-80
2021/08/06 04:08:09;;;;;;;1.00;1.00;;;20.50;99.90;;;;;;5052870;28;20045;-79
2021/08/06 04:10:35;;;;;;;1.30;1.20;;;20.50;99.90;;;;;;5052992;28;20405;-80
2021/08/06 04:13:01;;;;;;;1.50;1.40;;;20.40;99.90;;;;;;5056585;28;20044;-79
2021/08/06 04:15:27;;;;;;;2.67;1.38;;;20.40;99.90;;;;;;5073085;28;20035;-79
2021/08/06 04:17:53;;;;;;;1.85;1.70;;;20.30;99.90;;;;;;5050623;28;20033;-80
2021/08/06 04:20:19;;;;;;;1.55;1.45;;;20.30;99.90;;;;;;5053050;28;20025;-79
2021/08/06 04:22:45;;;;;;;3.60;1.48;;;20.30;99.90;;;;;;5064785;28;20066;-79
2021/08/06 04:25:11;;;;;;;3.72;1.23;;;20.30;99.90;;;;;;5073023;28;20029;-79
2021/08/06 04:27:38;;;;;;;1.20;1.05;;;20.30;99.90;;;;;;5056080;28;20032;-79
2021/08/06 04:30:05;;;;;;;3.33;1.13;;;20.30;99.90;;;;;;5052841;28;20032;-79
2021/08/06 04:32:31;;;;;;;1.50;1.40;;;20.20;99.90;;;;;;5062170;28;20028;-79
2021/08/06 04:34:57;;;;;;;2.15;1.45;;;20.30;99.90;;;;;;5054942;28;20059;-79
2021/08/06 04:37:22;;;;;;;4.38;1.15;;;20.20;99.90;;;;;;5067022;28;20028;-79
2021/08/06 04:39:48;;;;;;;1.63;1.30;;;20.30;99.90;;;;;;5054453;28;20119;-79
2021/08/06 04:42:14;;;;;;;1.75;1.35;;;20.30;99.90;;;;;;5047334;28;20040;-79
2021/08/06 04:44:40;;;;;;;1.73;1.33;;;20.30;99.90;;;;;;5069615;28;20113;-79
2021/08/06 04:47:06;;;;;;;2.25;1.40;;;20.30;99.90;;;;;;5072085;28;20052;-79
2021/08/06 04:49:33;;;;;;;5.88;1.10;;;20.30;99.90;;;;;;5072633;28;20031;-79
2021/08/06 04:51:59;;;;;;;1.25;1.17;;;20.30;99.90;;;;;;5067842;28;20476;-79
2021/08/06 04:54:25;;;;;;;1.50;1.40;;;20.30;99.90;;;;;;5052692;28;20067;-79
2021/08/06 04:56:51;;;;;;;1.45;1.35;;;20.30;99.90;;;;;;5061900;28;20025;-79
2021/08/06 04:59:16;;;;;;;1.58;1.48;;;20.30;99.90;;;;;;5072570;28;20460;-79
2021/08/06 05:01:42;;;;;;;1.15;1.02;;;20.30;99.90;;;;;;5051704;28;20039;-79
2021/08/06 05:04:08;;;;;;;4.85;1.55;;;20.30;99.90;;;;;;5066120;28;20064;-79
2021/08/06 05:06:33;;;;;;;1.40;1.30;;;20.30;99.90;;;;;;5068785;28;20449;-79
2021/08/06 05:08:59;;;;;;;1.50;1.40;;;20.30;99.90;;;;;;5062974;28;20507;-80
2021/08/06 05:11:26;;;;;;;1.35;1.25;;;20.30;99.90;;;;;;5072307;28;20099;-79
2021/08/06 05:13:52;;;;;;;2.42;1.42;;;20.30;99.90;;;;;;5046491;28;20557;-79
2021/08/06 05:16:18;;;;;;;1.45;1.35;;;20.30;99.90;;;;;;5056222;28;20064;-80
2021/08/06 05:18:43;;;;;;;2.45;1.30;;;20.30;99.90;;;;;;5063610;28;20529;-79
2021/08/06 05:21:09;;;;;;;2.72;1.23;;;20.30;99.90;;;;;;5076023;28;20028;-79
2021/08/06 05:23:35;;;;;;;3.17;1.50;;;20.40;99.90;;;;;;5075849;28;20077;-79
2021/08/06 05:26:01;;;;;;;1.83;1.38;;;20.40;99.90;;;;;;5058528;28;20108;-77
2021/08/06 05:28:27;;;;;;;4.15;1.67;;;20.50;99.90;;;;;;5055727;28;20025;-77
2021/08/06 05:30:52;;;;;;;4.43;1.38;;;20.50;99.90;;;;;;5055395;28;20024;-77
2021/08/06 05:33:18;;;;;;;1.90;1.10;;;20.60;99.90;;;;;;5055425;28;20025;-77
2021/08/06 05:35:44;;;;;;;5.28;1.35;;;20.60;99.90;;;;;;5055749;28;20025;-77
2021/08/06 05:38:10;;;;;;;3.53;1.30;;;20.70;99.90;;;;;;5055612;28;20044;-77
2021/08/06 05:40:36;;;;;;;4.00;1.63;;;20.70;99.90;;;;;;5055726;28;20027;-77
2021/08/06 05:43:02;;;;;;;1.52;1.33;;;20.70;99.90;;;;;;5040961;28;20028;-77
2021/08/06 05:45:28;;;;;;;1.25;1.20;;;20.70;99.90;;;;;;5075486;28;20025;-77
2021/08/06 05:47:55;;;;;;;4.53;1.73;;;20.70;99.90;;;;;;5075446;28;20044;-77
2021/08/06 05:50:23;;;;;;;1.80;1.70;;;20.80;99.90;;;;;;5075426;28;20441;-77
2021/08/06 05:52:49;;;;;;;3.22;1.60;;;20.80;99.90;;;;;;5074964;28;20380;-77
2021/08/06 05:55:16;;;;;;;1.30;1.20;;;20.80;99.90;;;;;;5057262;28;20472;-77
2021/08/06 05:57:46;;;;;;;1.42;1.27;;;20.90;99.90;;;;;;5075074;28;20020;-77
2021/08/06 06:00:14;;;;;;;2.33;1.60;;;20.90;99.90;;;;;;5075468;28;20036;-77
2021/08/06 06:02:40;;;;;;;2.30;1.80;;;21.10;99.90;;;;;;5056920;28;20081;-77
2021/08/06 06:05:06;;;;;;;1.67;1.30;;;21.10;99.90;;;;;;5075014;28;20025;-77
2021/08/06 06:07:41;;;;;;;1.95;1.35;;;21.10;99.90;;;;;;5057360;28;20073;-77
2021/08/06 06:10:07;;;;;;;4.50;1.48;;;21.20;99.90;;;;;;5055272;28;20495;-77
2021/08/06 06:12:32;;;;;;;2.28;1.52;;;21.30;99.90;;;;;;5065997;28;20025;-77
2021/08/06 06:14:58;;;;;;;1.75;1.65;;;21.30;99.90;;;;;;5050094;28;20039;-77
2021/08/06 06:17:24;;;;;;;2.80;1.30;;;21.30;99.90;;;;;;5048721;28;20016;-77
2021/08/06 06:19:51;;;;;;;1.60;1.48;;;21.40;99.90;;;;;;5069880;28;20032;-77
2021/08/06 06:22:16;;;;;;;2.70;1.80;;;21.40;99.90;;;;;;5071724;28;20025;-77
2021/08/06 06:24:42;;;;;;;9.57;1.85;;;21.50;99.90;;;;;;5073459;28;20024;-77
2021/08/06 06:27:09;;;;;;;1.58;1.45;;;21.50;99.90;;;;;;5056159;28;20033;-77
2021/08/06 06:29:35;;;;;;;2.88;1.73;;;21.60;99.90;;;;;;5073988;28;20020;-77
2021/08/06 06:32:01;;;;;;;1.95;1.83;;;21.70;99.90;;;;;;5067271;28;20033;-77
2021/08/06 06:34:26;;;;;;;1.85;1.75;;;21.70;99.90;;;;;;5062353;28;20028;-77
2021/08/06 06:36:52;;;;;;;1.63;1.50;;;21.80;99.90;;;;;;5056569;28;20090;-77
2021/08/06 06:39:18;;;;;;;2.55;2.15;;;21.80;99.90;;;;;;5074476;28;20031;-77
2021/08/06 06:41:43;;;;;;;3.22;2.45;;;21.90;99.90;;;;;;5072483;28;20055;-77
2021/08/06 06:44:09;;;;;;;2.33;2.13;;;22.00;99.90;;;;;;5068328;28;20028;-77
2021/08/06 06:46:35;;;;;;;3.85;2.38;;;22.00;99.90;;;;;;5054467;28;20416;-77
2021/08/06 06:49:00;;;;;;;3.47;2.42;;;22.00;99.90;;;;;;5037604;28;20013;-77
2021/08/06 06:51:26;;;;;;;2.60;2.25;;;22.10;99.90;;;;;;5054774;28;20043;-77
2021/08/06 06:53:52;;;;;;;5.03;2.78;;;22.10;99.90;;;;;;5070701;28;20025;-77
2021/08/06 06:56:18;;;;;;;2.97;2.55;;;22.10;99.90;;;;;;5055408;28;20025;-77
2021/08/06 06:58:43;;;;;;;3.10;2.35;;;22.20;99.90;;;;;;5054338;28;20032;-77
2021/08/06 07:01:10;;;;;;;7.70;2.50;;;22.20;99.90;;;;;;5054349;28;20025;-77
2021/08/06 07:03:36;;;;;;;2.22;2.03;;;22.30;99.90;;;;;;5048002;28;20074;-77
2021/08/06 07:06:01;;;;;;;2.30;2.10;;;22.30;99.90;;;;;;5056682;28;20017;-77
2021/08/06 07:08:28;;;;;;;3.42;1.98;;;22.30;99.90;;;;;;5061739;28;20040;-77
2021/08/06 07:10:54;;;;;;;4.90;2.42;;;22.30;99.90;;;;;;5064252;28;20108;-77
2021/08/06 07:13:20;;;;;;;4.35;2.10;;;22.40;99.90;;;;;;5070438;28;20764;-80
2021/08/06 07:15:46;;;;;;;2.50;2.30;;;22.40;99.90;;;;;;5071634;28;20400;-80
2021/08/06 07:18:13;;;;;;;2.30;2.10;;;22.50;99.90;;;;;;5072864;28;20169;-79
2021/08/06 07:20:39;;;;;;;2.22;2.03;;;22.50;99.90;;;;;;5073108;28;20028;-79
2021/08/06 07:23:05;;;;;;;2.33;1.58;;;22.50;99.90;;;;;;5067990;28;20036;-79
2021/08/06 07:25:31;;;;;;;3.25;2.10;;;22.60;99.90;;;;;;5063376;28;20044;-79
2021/08/06 07:27:57;;;;;;;2.13;1.92;;;22.70;99.90;;;;;;5053496;28;20025;-79
2021/08/06 07:30:23;;;;;;;3.47;1.73;;;22.80;99.90;;;;;;5072390;28;20032;-79
2021/08/06 07:32:49;;;;;;;6.15;2.10;;;22.80;99.90;;;;;;5072455;28;20024;-79
2021/08/06 07:35:16;;;;;;;3.30;2.53;;;22.90;99.90;;;;;;5071489;28;20495;-79
2021/08/06 07:37:42;;;;;;;2.80;2.13;;;22.80;99.90;;;;;;5067454;28;20480;-79
2021/08/06 07:40:10;;;;;;;6.57;2.00;;;22.80;99.90;;;;;;5072135;28;20083;-79
2021/08/06 07:42:36;;;;;;;2.38;2.17;;;22.90;99.90;;;;;;5047730;28;20021;-79
2021/08/06 07:45:04;;;;;;;2.95;2.30;;;23.00;99.90;;;;;;5071243;28;20028;-79
2021/08/06 07:47:29;;;;;;;2.22;2.13;;;23.00;99.90;;;;;;5072825;28;20027;-79
2021/08/06 07:49:55;;;;;;;3.78;2.75;;;23.10;99.90;;;;;;5073025;28;20091;-79
2021/08/06 07:52:21;;;;;;;1.83;1.73;;;23.10;99.90;;;;;;5066325;28;20025;-79
2021/08/06 07:54:48;;;;;;;6.95;2.22;;;23.10;99.90;;;;;;5069291;28;20025;-79
2021/08/06 07:57:14;;;;;;;5.68;2.13;;;23.20;99.90;;;;;;5072432;28;20028;-79
2021/08/06 07:59:40;;;;;;;2.72;2.00;;;23.30;99.90;;;;;;5072457;28;20107;-78
2021/08/06 08:02:07;;;;;;;2.08;1.98;;;23.20;99.90;;;;;;5072426;28;20542;-79
2021/08/06 08:04:33;;;;;;;4.30;2.20;;;23.20;99.90;;;;;;5072448;28;20502;-79
2021/08/06 08:06:59;;;;;;;2.88;2.67;;;23.20;99.90;;;;;;5054576;28;20017;-79
2021/08/06 08:09:24;;;;;;;7.63;2.10;;;23.30;99.90;;;;;;5072597;28;20057;-79
2021/08/06 08:11:50;;;;;;;3.25;2.33;;;23.30;99.90;;;;;;5072722;28;20021;-79
2021/08/06 08:14:16;;;;;;;3.15;2.40;;;23.30;99.90;;;;;;5072589;28;20103;-79
2021/08/06 08:16:42;;;;;;;3.00;2.38;;;23.30;99.90;;;;;;5054654;28;20020;-79
2021/08/06 08:19:08;;;;;;;2.28;2.08;;;23.30;99.90;;;;;;5072592;28;20028;-80
2021/08/06 08:21:33;;;;;;;2.15;2.00;;;23.30;99.90;;;;;;5072462;28;20558;-79
2021/08/06 08:24:02;;;;;;;3.05;2.30;;;23.30;99.90;;;;;;5072316;28;20031;-79
2021/08/06 08:26:28;;;;;;;1.63;1.52;;;23.40;99.90;;;;;;5072472;28;20066;-79
2021/08/06 08:28:53;;;;;;;5.30;2.40;;;23.50;99.90;;;;;;5072574;28;20021;-79
2021/08/06 08:31:19;;;;;;;2.05;1.95;;;23.60;99.90;;;;;;5071450;28;20028;-79
2021/08/06 08:33:45;;;;;;;3.20;2.17;;;23.60;99.90;;;;;;5054305;28;20052;-79
2021/08/06 08:36:11;;;;;;;2.63;2.42;;;23.50;99.90;;;;;;5053824;28;20024;-79
2021/08/06 08:38:37;;;;;;;4.78;1.80;;;23.60;99.90;;;;;;5071916;28;20025;-79
2021/08/06 08:41:04;;;;;;;1.90;1.80;;;23.50;99.90;;;;;;5072180;28;20021;-79
2021/08/06 08:43:30;;;;;;;1.80;1.70;;;23.60;99.90;;;;;;5072244;28;20029;-78
2021/08/06 08:45:57;;;;;;;7.82;1.73;;;23.60;99.90;;;;;;5072084;28;20077;-78
2021/08/06 08:48:23;;;;;;;7.72;2.10;;;23.70;99.90;;;;;;5074074;28;20417;-78
2021/08/06 08:50:53;;;;;;;1.90;1.73;;;23.80;99.90;;;;;;5076385;28;20029;-77
2021/08/06 08:53:19;;;;;;;4.50;2.50;;;23.90;99.90;;;;;;5076147;28;20021;-78
2021/08/06 08:55:45;;;;;;;2.17;1.67;;;23.90;99.90;;;;;;5076416;28;20044;-78
2021/08/06 08:58:11;;;;;;;2.65;2.10;;;23.90;99.90;;;;;;5068349;28;20032;-78
2021/08/06 09:00:39;;;;;;;2.63;2.42;;;23.90;99.90;;;;;;5073313;28;20032;-78
2021/08/06 09:03:06;;;;;;;4.78;1.90;;;23.90;99.90;;;;;;5052272;28;20155;-77
2021/08/06 09:05:31;;;;;;;3.50;2.22;;;23.90;99.90;;;;;;5053805;28;20056;-78
2021/08/06 09:07:58;;;;;;;2.38;1.90;;;23.80;99.90;;;;;;5074243;28;20106;-78
2021/08/06 09:10:27;;;;;;;2.08;1.88;;;23.80;99.90;;;;;;5047896;28;20025;-78
2021/08/06 09:13:03;;;;;;;2.63;1.88;;;23.90;99.90;;;;;;5070497;28;20028;-78
2021/08/06 09:15:44;;;;;;;1.88;1.77;;;24.00;99.90;;;;;;5056297;28;20060;-78
2021/08/06 09:18:29;;;;;;;2.28;2.08;;;24.10;99.90;;;;;;5054628;28;20042;-78
2021/08/06 09:20:56;;;;;;;3.08;1.90;;;24.20;99.90;;;;;;5070954;28;20032;-78
2021/08/06 09:23:51;;;;;;;2.00;1.90;;;24.20;99.90;;;;;;5075700;28;20479;-78
2021/08/06 09:26:34;;;;;;;2.35;1.90;;;24.20;99.90;;;;;;5073784;28;20028;-77
2021/08/06 09:29:01;;;;;;;2.05;1.95;;;24.20;99.90;;;;;;5073909;28;20050;-78
2021/08/06 09:31:28;;;;;;;1.92;1.83;;;24.20;99.90;;;;;;5052124;28;20471;-74
2021/08/06 09:34:13;;;;;;;2.00;1.80;;;24.20;99.90;;;;;;5047458;28;20450;-77
2021/08/06 09:37:11;;;;;;;1.77;1.67;;;24.30;99.90;;;;;;5066820;28;20033;-76
2021/08/06 09:39:48;;;;;;;2.10;1.88;;;24.40;99.90;;;;;;5055369;28;20025;-77
2021/08/06 09:42:24;;;;;;;3.15;1.90;;;24.40;99.90;;;;;;5072038;28;20078;-76
2021/08/06 09:44:59;;;;;;;1.98;1.80;;;24.50;99.90;;;;;;5055147;28;20488;-76
2021/08/06 09:47:26;;;;;;;2.30;1.80;;;24.50;99.90;;;;;;5065990;28;20029;-77
2021/08/06 09:49:58;;;;;;;2.67;2.13;;;24.60;99.90;;;;;;5075062;28;20130;-77
2021/08/06 09:52:31;;;;;;;3.92;1.98;;;24.70;99.50;;;;;;5052797;28;20031;-77
2021/08/06 09:54:57;;;;;;;2.47;2.20;;;24.70;98.90;;;;;;5074541;28;20472;-77
2021/08/06 09:57:22;;;;;;;2.00;1.80;;;24.70;99.10;;;;;;5070448;28;20025;-76
2021/08/06 09:59:54;;;;;;;2.40;2.17;;;24.70;99.40;;;;;;5073673;28;20032;-77
2021/08/06 10:02:25;;;;;;;2.60;1.73;;;24.80;99.20;;;;;;5074403;28;20032;-77
2021/08/06 10:05:03;;;;;;;3.07;1.90;;;24.80;99.10;;;;;;5070474;28;20024;-77
2021/08/06 10:07:31;;;;;;;2.13;2.00;;;24.80;98.80;;;;;;5064856;28;20522;-76
2021/08/06 10:09:58;;;;;;;2.88;1.58;;;24.90;98.90;;;;;;5053481;28;20024;-76
2021/08/06 10:12:23;;;;;;;1.80;1.70;;;25.00;98.10;;;;;;5071079;28;20510;-77
2021/08/06 10:14:49;;;;;;;1.73;1.63;;;25.00;98.90;;;;;;5071315;28;20025;-77
2021/08/06 10:17:15;;;;;;;2.03;1.48;;;25.20;98.80;;;;;;5053778;28;20561;-77
2021/08/06 10:19:41;;;;;;;1.80;1.70;;;25.30;98.00;;;;;;5071153;28;20024;-77
2021/08/06 10:22:07;;;;;;;1.83;1.73;;;25.30;97.30;;;;;;5071920;28;20517;-77
2021/08/06 10:24:34;;;;;;;2.22;2.00;;;25.30;96.70;;;;;;5071424;28;20016;-77
2021/08/06 10:27:01;;;;;;;4.75;1.90;;;25.30;97.20;;;;;;5071413;28;20476;-77
2021/08/06 10:29:26;;;;;;;3.13;2.10;;;25.40;97.50;;;;;;5071691;28;20016;-77
2021/08/06 10:32:09;;;;;;;2.33;1.40;;;25.40;97.40;;;;;;5071213;28;20031;-77
2021/08/06 10:35:14;;;;;;;3.00;1.92;;;25.50;99.10;;;;;;5071118;28;20035;-77
2021/08/06 10:37:45;;;;;;;3.08;1.70;;;25.80;97.90;;;;;;4998937;28;20045;-78
2021/08/06 10:40:13;;;;;;;1.73;1.63;;;25.80;98.00;;;;;;5062004;28;20029;-77
2021/08/06 10:42:39;;;;;;;1.88;1.75;;;25.80;97.50;;;;;;5071077;28;20371;-77
2021/08/06 10:45:05;;;;;;;2.28;1.70;;;25.90;99.30;;;;;;5070301;28;20429;-77
2021/08/06 10:47:52;;;;;;;2.10;1.90;;;25.90;97.40;;;;;;5070193;28;20108;-77
2021/08/06 10:50:20;;;;;;;1.75;1.65;;;26.10;97.80;;;;;;5066913;28;20092;-77
2021/08/06 10:53:25;;;;;;;3.83;2.25;;;26.10;97.10;;;;;;5070777;28;20052;-77
2021/08/06 10:56:15;;;;;;;3.88;1.90;;;26.10;96.10;;;;;;5064119;28;20044;-77
2021/08/06 10:58:47;;;;;;;2.90;1.52;;;26.20;97.40;;;;;;5068138;28;20028;-76
2021/08/06 11:01:34;;;;;;;1.95;1.85;;;26.20;95.80;;;;;;5069077;28;20035;-77
2021/08/06 11:04:03;;;;;;;6.65;1.75;;;26.30;96.90;;;;;;5039301;28;20032;-77
2021/08/06 11:06:36;;;;;;;4.95;1.90;;;26.40;97.40;;;;;;5070298;28;20514;-77
2021/08/06 11:09:06;;;;;;;4.20;1.70;;;26.50;97.60;;;;;;5069836;28;20056;-77
2021/08/06 11:11:54;;;;;;;1.80;1.70;;;26.50;97.00;;;;;;5063924;28;20025;-77
2021/08/06 11:14:29;;;;;;;1.98;1.88;;;26.60;97.30;;;;;;5047241;28;20060;-77
2021/08/06 11:17:03;;;;;;;3.38;1.50;;;26.70;96.10;;;;;;5070320;28;20487;-76
2021/08/06 11:19:56;;;;;;;4.18;1.92;;;26.80;94.30;;;;;;5069177;28;20036;-77
2021/08/06 11:22:29;;;;;;;1.85;1.75;;;26.90;94.10;;;;;;5064185;28;20438;-77
2021/08/06 11:24:56;;;;;;;1.58;1.48;;;26.80;93.10;;;;;;5057396;28;20186;-77
2021/08/06 11:27:32;;;;;;;1.95;1.85;;;26.90;92.60;;;;;;5052303;28;20029;-77
2021/08/06 11:30:07;;;;;;;2.10;1.88;;;26.90;93.40;;;;;;5067419;28;20031;-77
2021/08/06 11:33:04;;;;;;;1.70;1.60;;;27.10;94.20;;;;;;5062701;28;20149;-76
2021/08/06 11:35:33;;;;;;;1.80;1.70;;;27.20;92.20;;;;;;5068754;28;20039;-76
2021/08/06 11:38:00;;;;;;;4.90;1.73;;;27.20;92.30;;;;;;5069416;28;20506;-77
2021/08/06 11:40:33;;;;;;;1.70;1.60;;;27.10;90.80;;;;;;5069417;28;20533;-76
2021/08/06 11:43:09;;;;;;;5.82;1.80;;;27.20;91.70;;;;;;5068928;28;20661;-76
2021/08/06 11:45:35;;;;;;;3.08;1.92;;;27.30;91.20;;;;;;5069137;28;20508;-77
2021/08/06 11:48:03;;;;;;;2.05;1.92;;;27.30;92.00;;;;;;5063769;28;20029;-77
2021/08/06 11:50:45;;;;;;;1.83;1.50;;;27.40;92.50;;;;;;5068867;28;20020;-75
2021/08/06 11:53:25;;;;;;;1.60;1.50;;;27.50;91.30;;;;;;5068298;28;20028;-76
2021/08/06 11:55:56;;;;;;;2.00;1.63;;;27.50;85.90;;;;;;5066703;28;20031;-76
2021/08/06 11:58:37;;;;;;;1.63;1.52;;;27.60;86.60;;;;;;5067623;28;20055;-75
2021/08/06 12:01:04;;;;;;;2.05;1.88;;;27.80;90.20;;;;;;5067912;28;20060;-75
2021/08/06 12:03:40;;;;;;;2.08;1.98;;;27.90;89.10;;;;;;5067559;28;20024;-76
2021/08/06 12:06:06;;;;;;;1.40;1.30;;;27.90;88.70;;;;;;5067612;28;20020;-75
2021/08/06 12:08:33;;;;;;;1.52;1.42;;;27.90;87.10;;;;;;5068884;28;20032;-75
2021/08/06 12:11:05;;;;;;;2.42;1.40;;;28.00;85.90;;;;;;5068639;28;20039;-75
2021/08/06 12:13:50;;;;;;;2.13;1.92;;;28.00;88.50;;;;;;5062304;28;20028;-75
2021/08/06 12:16:24;;;;;;;3.90;1.52;;;28.10;88.80;;;;;;5068783;28;20036;-76
2021/08/06 12:18:51;;;;;;;1.67;1.55;;;28.20;85.90;;;;;;5061568;28;20388;-75
2021/08/06 12:21:28;;;;;;;1.40;1.30;;;28.10;86.50;;;;;;5068773;28;20499;-75
2021/08/06 12:24:07;;;;;;;3.17;1.48;;;28.10;86.80;;;;;;5068661;28;20024;-76
2021/08/06 12:26:32;;;;;;;7.45;1.95;;;28.20;85.50;;;;;;5068878;28;20070;-75
2021/08/06 12:29:17;;;;;;;1.77;1.50;;;28.30;87.00;;;;;;5068707;28;20024;-75
2021/08/06 12:32:14;;;;;;;1.70;1.60;;;28.30;85.80;;;;;;5069239;28;20031;-75
2021/08/06 12:34:49;;;;;;;1.48;1.38;;;28.40;86.80;;;;;;5061734;28;20059;-75
2021/08/06 12:37:17;;;;;;;2.85;1.38;;;28.50;86.00;;;;;;5068488;28;20020;-76
2021/08/06 12:39:45;;;;;;;4.30;2.00;;;28.50;83.70;;;;;;5068401;28;20021;-76
2021/08/06 12:42:14;;;;;;;1.85;1.45;;;28.50;83.70;;;;;;5068938;28;20082;-75
2021/08/06 12:44:40;;;;;;;1.38;1.27;;;28.60;83.00;;;;;;5067893;28;20025;-76
2021/08/06 12:47:12;;;;;;;2.25;1.83;;;28.70;84.10;;;;;;5065048;28;20082;-76
2021/08/06 12:49:41;;;;;;;1.63;1.52;;;28.70;83.80;;;;;;5059549;28;20074;-76
2021/08/06 12:52:15;;;;;;;1.38;1.27;;;28.70;83.50;;;;;;5047274;28;20672;-76
2021/08/06 12:55:11;;;;;;;2.90;1.67;;;28.90;84.10;;;;;;5062330;28;20036;-75
2021/08/06 12:57:52;;;;;;;2.58;1.42;;;28.90;83.40;;;;;;5054980;28;20056;-75